createdAt,value
2024-05-09T00:00:02.428Z,66.328125
2024-05-09T00:05:03.003Z,66.21777344
2024-05-09T00:10:03.152Z,66.12988281
2024-05-09T00:15:02.433Z,66.02148438
2024-05-09T00:20:05.212Z,66.12304688
2024-05-09T00:25:02.190Z,66.75976563
2024-05-09T00:30:04.130Z,67.12207031
2024-05-09T00:35:02.684Z,67.10351563
2024-05-09T00:40:03.552Z,67.81445313
2024-05-09T00:45:02.864Z,68.09765625
2024-05-09T00:50:04.304Z,67.68066406
2024-05-09T00:55:02.897Z,68.06445313
2024-05-09T01:00:02.218Z,68.02929688
2024-05-09T01:05:02.606Z,68.47753906
2024-05-09T01:10:03.266Z,68.71972656
2024-05-09T01:15:02.710Z,69.79589844
2024-05-09T01:20:05.753Z,69.83105469
2024-05-09T01:25:02.344Z,69.67871094
2024-05-09T01:30:04.076Z,70.52148438
2024-05-09T01:35:03.108Z,70.77441406
2024-05-09T01:40:02.287Z,70.9453125
2024-05-09T01:45:02.549Z,71.1484375
2024-05-09T01:50:03.501Z,70.90820313
2024-05-09T01:55:06.273Z,70.59765625
2024-05-09T02:00:03.719Z,70.41796875
2024-05-09T02:05:03.310Z,70.37109375
2024-05-09T02:10:06.589Z,70.24804688
2024-05-09T02:15:02.786Z,70.25488281
2024-05-09T02:20:03.683Z,70.74023438
2024-05-09T02:25:03.024Z,70.79980469
2024-05-09T02:30:02.303Z,71.05957031
2024-05-09T02:35:02.670Z,71.07910156
2024-05-09T02:40:03.484Z,70.99316406
2024-05-09T02:45:02.581Z,70.92773438
2024-05-09T02:50:03.113Z,70.79394531
2024-05-09T02:55:02.764Z,71.24804688
2024-05-09T03:00:03.601Z,72.56640625
2024-05-09T03:05:02.964Z,73.63671875
2024-05-09T03:10:02.231Z,74.00585938
2024-05-09T03:15:02.448Z,74.01953125
2024-05-09T03:20:04.132Z,74.68554688
2024-05-09T03:25:02.414Z,74.89746094
2024-05-09T03:30:04.063Z,74.53027344
2024-05-09T03:35:02.759Z,74.66796875
2024-05-09T03:40:03.097Z,74.66796875
2024-05-09T03:45:02.357Z,74.74414063
2024-05-09T03:50:04.409Z,75.25976563
2024-05-09T03:55:02.762Z,75.16503906
2024-05-09T04:00:05.570Z,75.08691406
2024-05-09T04:05:03.019Z,74.96191406
2024-05-09T04:10:02.924Z,74.96777344
2024-05-09T04:15:02.174Z,74.95117188
2024-05-09T04:20:02.468Z,75.28808594
2024-05-09T04:25:03.099Z,75.296875
2024-05-09T04:30:02.320Z,75.18457031
2024-05-09T04:40:03.113Z,75.328125
2024-05-09T04:45:02.391Z,75.33789063
2024-05-09T04:50:02.725Z,75.66894531
2024-05-09T04:55:02.988Z,76.33398438
2024-05-09T05:00:03.039Z,76.60742188
2024-05-09T05:05:02.492Z,76.44726563
2024-05-09T05:10:04.477Z,76.48242188
2024-05-09T05:15:02.890Z,76.48730469
2024-05-09T05:20:02.506Z,76.40136719
2024-05-09T05:25:03.009Z,76.26367188
2024-05-09T05:30:02.183Z,76.13964844
2024-05-09T05:35:02.435Z,76.06933594
2024-05-09T05:40:03.271Z,76.09765625
2024-05-09T05:45:02.487Z,76.171875
2024-05-09T05:50:03.053Z,76.10644531
2024-05-09T05:55:02.467Z,76.37597656
2024-05-09T06:00:04.143Z,76.35253906
2024-05-09T06:05:02.830Z,76.3203125
2024-05-09T06:10:02.923Z,76.12695313
2024-05-09T06:15:02.255Z,75.93261719
2024-05-09T06:20:02.611Z,76.21191406
2024-05-09T06:25:02.208Z,75.92285156
2024-05-09T06:30:02.522Z,75.86621094
2024-05-09T06:35:02.855Z,75.60546875
2024-05-09T06:40:04.150Z,75.39941406
2024-05-09T06:45:02.931Z,75.14453125
2024-05-09T06:50:02.167Z,74.99121094
2024-05-09T06:55:02.559Z,74.69628906
2024-05-09T07:00:02.972Z,74.42773438
2024-05-09T07:05:03.106Z,74.08984375
2024-05-09T07:10:02.496Z,73.76953125
2024-05-09T07:15:02.739Z,73.49511719
2024-05-09T07:20:03.097Z,73.1796875
2024-05-09T07:25:02.305Z,71.92871094
2024-05-09T07:30:05.389Z,70.31054688
2024-05-09T07:35:02.799Z,69.81738281
2024-05-09T07:40:04.253Z,70.140625
2024-05-09T07:45:21.307Z,69.33984375
2024-05-09T07:51:51.333Z,69.22265625
2024-05-09T07:55:02.415Z,67.59472656
2024-05-09T08:00:03.318Z,68.125
2024-05-09T08:05:02.781Z,68.07910156
2024-05-09T08:10:04.215Z,66.74902344
2024-05-09T08:15:02.460Z,64.4140625
2024-05-09T08:20:05.059Z,62.76757813
2024-05-09T08:25:02.932Z,63.44628906
2024-05-09T08:30:02.189Z,64.13671875
2024-05-09T08:35:02.448Z,63.75292969
2024-05-09T08:40:03.963Z,61.12890625
2024-05-09T08:45:02.386Z,58.67773438
2024-05-09T08:50:03.111Z,59.29199219
2024-05-09T08:55:02.268Z,60.12109375
2024-05-09T09:00:03.586Z,59.53125
2024-05-09T09:05:03.114Z,58.05078125
2024-05-09T09:10:02.642Z,57.17773438
2024-05-09T09:15:02.436Z,56.13964844
2024-05-09T09:20:02.866Z,55.12792969
2024-05-09T09:25:02.120Z,53.83007813
2024-05-09T09:30:02.382Z,53.51074219
2024-05-09T09:35:02.640Z,51.80761719
2024-05-09T09:40:03.246Z,53.18359375
2024-05-09T09:45:05.496Z,52.82421875
2024-05-09T09:50:02.308Z,49.4921875
2024-05-09T09:55:02.604Z,49.47460938
2024-05-09T10:00:05.620Z,48.828125
2024-05-09T10:05:02.648Z,48.12792969
2024-05-09T10:10:03.366Z,48.55566406
2024-05-09T10:15:02.304Z,49.20214844
2024-05-09T10:20:04.091Z,47.26855469
2024-05-09T10:25:04.831Z,43.74023438
2024-05-09T10:30:06.753Z,46.39257813
2024-05-09T10:35:02.429Z,45.29980469
2024-05-09T10:40:05.498Z,44.53613281
2024-05-09T10:45:02.452Z,44.22070313
2024-05-09T10:50:03.695Z,43.04296875
2024-05-09T10:55:05.610Z,41.21484375
2024-05-09T11:00:02.117Z,38.78710938
2024-05-09T11:05:02.514Z,41.703125
2024-05-09T11:10:03.034Z,43.73046875
2024-05-09T11:15:02.628Z,44.14746094
2024-05-09T11:20:08.113Z,44.90820313
2024-05-09T11:25:03.256Z,38.97265625
2024-05-09T11:30:04.184Z,37.40136719
2024-05-09T11:35:02.678Z,36.95605469
2024-05-09T11:40:04.358Z,36.00488281
2024-05-09T11:45:02.995Z,36.08203125
2024-05-09T11:50:02.670Z,33.10839844
2024-05-09T11:55:02.788Z,35.00195313
2024-05-09T12:00:04.204Z,34.27050781
2024-05-09T12:05:02.737Z,34.8828125
2024-05-09T12:10:06.095Z,33.57421875
2024-05-09T12:15:03.102Z,34.4140625
2024-05-09T12:20:03.183Z,34.14453125
2024-05-09T12:25:02.443Z,30.53222656
2024-05-09T12:30:03.357Z,31.70605469
2024-05-09T12:35:02.760Z,33.15136719
2024-05-09T12:40:03.878Z,31.85058594
2024-05-09T12:45:02.188Z,31.79101563
2024-05-09T12:50:03.803Z,33.13476563
2024-05-09T12:55:02.416Z,35.37890625
2024-05-09T13:00:04.065Z,34.64550781
2024-05-09T13:05:02.756Z,34.66503906
2024-05-09T13:10:02.376Z,35.11132813
2024-05-09T13:15:02.637Z,32.92089844
2024-05-09T13:20:04.280Z,32.265625
2024-05-09T13:25:02.717Z,31.32128906
2024-05-09T13:30:03.071Z,31.42089844
2024-05-09T13:35:03.336Z,30.9296875
2024-05-09T13:40:03.356Z,31.30566406
2024-05-09T13:45:02.516Z,30.67089844
2024-05-09T13:50:03.799Z,30.94335938
2024-05-09T13:55:02.471Z,31.18066406
2024-05-09T14:00:03.777Z,29.28808594
2024-05-09T14:05:02.471Z,29.83496094
2024-05-09T14:10:03.993Z,31.04101563
2024-05-09T14:15:02.325Z,31.41699219
2024-05-09T14:20:03.105Z,29.51171875
2024-05-09T14:25:03.166Z,29.84277344
2024-05-09T14:30:04.222Z,30.74609375
2024-05-09T14:35:03.099Z,31.82128906
2024-05-09T14:40:02.938Z,32.70019531
2024-05-09T14:45:02.986Z,32.0546875
2024-05-09T14:50:02.218Z,32.28417969
2024-05-09T14:55:02.542Z,31.90722656
2024-05-09T15:00:03.833Z,32.28613281
2024-05-09T15:05:02.615Z,32.43261719
2024-05-09T15:10:04.708Z,33.24023438
2024-05-09T15:15:03.081Z,33.47070313
2024-05-09T15:20:02.424Z,33.61425781
2024-05-09T15:25:02.754Z,33.91210938
2024-05-09T15:30:05.591Z,34.24902344
2024-05-09T15:35:02.623Z,34.25488281
2024-05-09T15:40:04.190Z,34.77636719
2024-05-09T15:45:02.648Z,34.89355469
2024-05-09T15:50:03.727Z,35.52246094
2024-05-09T15:55:02.478Z,35.60839844
2024-05-09T16:00:04.557Z,35.45214844
2024-05-09T16:05:02.310Z,36.0078125
2024-05-09T16:10:04.153Z,36.48046875
2024-05-09T16:15:02.487Z,37.31152344
2024-05-09T16:20:03.903Z,37.8671875
2024-05-09T16:25:03.118Z,38.24414063
2024-05-09T16:30:04.030Z,38.8671875
2024-05-09T16:35:02.780Z,39.49707031
2024-05-09T16:40:04.207Z,39.85546875
2024-05-09T16:45:02.638Z,40.44335938
2024-05-09T16:50:03.742Z,41.08789063
2024-05-09T16:55:02.614Z,41.453125
2024-05-09T17:00:04.359Z,41.65039063
2024-05-09T17:05:03.075Z,42.21289063
2024-05-09T17:10:03.082Z,42.38964844
2024-05-09T17:15:02.221Z,42.8046875
2024-05-09T17:20:03.745Z,43.5078125
2024-05-09T17:25:03.116Z,43.84375
2024-05-09T17:30:03.285Z,43.84570313
2024-05-09T17:35:02.929Z,43.5625
2024-05-09T17:40:02.647Z,43.29882813
2024-05-09T17:45:02.479Z,43.33105469
2024-05-09T17:50:02.756Z,43.72460938
2024-05-09T17:55:02.996Z,43.97265625
2024-05-09T18:00:04.024Z,44.34667969
2024-05-09T18:05:02.884Z,45.10449219
2024-05-09T18:10:02.434Z,45.55078125
2024-05-09T18:15:02.806Z,46.08886719
2024-05-09T18:20:03.771Z,46.33398438
2024-05-09T18:25:02.186Z,46.90527344
2024-05-09T18:30:03.155Z,47.15332031
2024-05-09T18:35:02.518Z,47.51269531
2024-05-09T18:40:03.381Z,47.88085938
2024-05-09T18:45:02.477Z,48.16210938
2024-05-09T18:50:02.982Z,47.95703125
2024-05-09T18:55:02.875Z,48.36816406
2024-05-09T19:00:04.224Z,48.95507813
2024-05-09T19:05:02.908Z,49.27148438
2024-05-09T19:10:02.247Z,49.140625
2024-05-09T19:15:02.452Z,49.57421875
2024-05-09T19:20:04.524Z,49.4453125
2024-05-09T19:25:02.934Z,49.80957031
2024-05-09T19:30:03.147Z,49.84667969
2024-05-09T19:35:02.448Z,50.07519531
2024-05-09T19:40:03.513Z,50.93847656
2024-05-09T19:45:02.502Z,51.33105469
2024-05-09T19:50:02.857Z,51.72460938
2024-05-09T19:55:02.584Z,52.88378906
2024-05-09T20:00:04.298Z,52.79980469
2024-05-09T20:05:03.085Z,52.34277344
2024-05-09T20:10:05.120Z,52.06933594
2024-05-09T20:15:02.467Z,52.18554688
2024-05-09T20:20:03.701Z,52.16699219
2024-05-09T20:25:02.952Z,52.21679688
2024-05-09T20:30:02.401Z,52.25878906
2024-05-09T20:35:02.650Z,52.70214844
2024-05-09T20:40:03.802Z,53.140625
2024-05-09T20:45:02.218Z,52.99023438
2024-05-09T20:50:02.491Z,53.13574219
2024-05-09T20:55:02.854Z,53.31152344
2024-05-09T21:00:03.437Z,53.45605469
2024-05-09T21:05:03.172Z,53.55078125
2024-05-09T21:10:04.637Z,53.62597656
2024-05-09T21:15:02.650Z,54.62988281
2024-05-09T21:20:03.630Z,55.67675781
2024-05-09T21:25:02.993Z,56.734375
2024-05-09T21:30:02.521Z,56.76953125
2024-05-09T21:35:02.590Z,57.02441406
2024-05-09T21:40:03.894Z,56.78515625
2024-05-09T21:45:02.315Z,56.74121094
2024-05-09T21:50:02.950Z,57.11035156
2024-05-09T21:55:02.369Z,57.99707031
2024-05-09T22:00:03.422Z,57.80371094
2024-05-09T22:05:02.944Z,57.90527344
2024-05-09T22:10:02.620Z,58.26171875
2024-05-09T22:15:02.417Z,58.109375
2024-05-09T22:20:04.561Z,58.03613281
2024-05-09T22:25:02.783Z,58.08496094
2024-05-09T22:30:03.998Z,58.49511719
2024-05-09T22:35:02.666Z,58.65527344
2024-05-09T22:40:05.503Z,59.40332031
2024-05-09T22:45:02.844Z,59.76855469
2024-05-09T22:50:03.572Z,59.65820313
2024-05-09T22:55:02.598Z,59.66894531
2024-05-09T23:00:03.205Z,60.37695313
2024-05-09T23:05:02.504Z,61.06542969
2024-05-09T23:10:04.345Z,62.79980469
2024-05-09T23:15:02.940Z,63.24414063
2024-05-09T23:20:03.852Z,63.50878906
2024-05-09T23:25:02.807Z,64.01171875
2024-05-09T23:30:04.595Z,64.89257813
2024-05-09T23:35:02.576Z,65.48730469
2024-05-09T23:40:06.823Z,65.9140625
2024-05-09T23:45:02.307Z,65.32324219
2024-05-09T23:50:05.089Z,65.62011719
2024-05-09T23:55:03.225Z,65.09667969
